sensor_id;sensor_type;location;lat;lon;timestamp;P1;durP1;ratioP1;P2;durP2;ratioP2
23346;SDS011;36852;45.466;11.066;2023-04-29T00:02:26;13.53;;;8.85;;
23346;SDS011;36852;45.466;11.066;2023-04-29T00:04:56;14.05;;;9.78;;
23346;SDS011;36852;45.466;11.066;2023-04-29T00:07:25;15.78;;;9.43;;
23346;SDS011;36852;45.466;11.066;2023-04-29T00:09:53;12.50;;;8.65;;
23346;SDS011;36852;45.466;11.066;2023-04-29T00:12:21;13.38;;;9.20;;
23346;SDS011;36852;45.466;11.066;2023-04-29T00:14:49;14.47;;;10.13;;
23346;SDS011;36852;45.466;11.066;2023-04-29T00:17:17;14.13;;;9.63;;
23346;SDS011;36852;45.466;11.066;2023-04-29T00:19:44;14.55;;;10.05;;
23346;SDS011;36852;45.466;11.066;2023-04-29T00:22:12;23.65;;;11.05;;
23346;SDS011;36852;45.466;11.066;2023-04-29T00:24:40;17.95;;;10.95;;
23346;SDS011;36852;45.466;11.066;2023-04-29T00:27:08;15.13;;;9.28;;
23346;SDS011;36852;45.466;11.066;2023-04-29T00:29:37;15.68;;;9.95;;
23346;SDS011;36852;45.466;11.066;2023-04-29T00:32:05;15.58;;;9.13;;
23346;SDS011;36852;45.466;11.066;2023-04-29T00:37:23;18.32;;;10.15;;
23346;SDS011;36852;45.466;11.066;2023-04-29T00:39:51;17.02;;;10.45;;
23346;SDS011;36852;45.466;11.066;2023-04-29T00:42:19;16.48;;;10.28;;
23346;SDS011;36852;45.466;11.066;2023-04-29T00:44:47;17.25;;;11.18;;
23346;SDS011;36852;45.466;11.066;2023-04-29T00:47:15;16.42;;;10.90;;
23346;SDS011;36852;45.466;11.066;2023-04-29T00:49:42;19.20;;;11.10;;
23346;SDS011;36852;45.466;11.066;2023-04-29T00:52:11;14.83;;;9.63;;
23346;SDS011;36852;45.466;11.066;2023-04-29T00:54:44;17.62;;;9.48;;
23346;SDS011;36852;45.466;11.066;2023-04-29T00:57:16;17.98;;;10.53;;
23346;SDS011;36852;45.466;11.066;2023-04-29T00:59:45;16.27;;;10.98;;
23346;SDS011;36852;45.466;11.066;2023-04-29T01:02:14;19.87;;;10.75;;
23346;SDS011;36852;45.466;11.066;2023-04-29T01:04:43;15.05;;;10.05;;
23346;SDS011;36852;45.466;11.066;2023-04-29T01:10:00;21.68;;;10.90;;
23346;SDS011;36852;45.466;11.066;2023-04-29T01:20:22;24.55;;;11.50;;
23346;SDS011;36852;45.466;11.066;2023-04-29T01:22:51;18.50;;;10.85;;
23346;SDS011;36852;45.466;11.066;2023-04-29T01:25:19;20.30;;;10.93;;
23346;SDS011;36852;45.466;11.066;2023-04-29T01:33:34;15.80;;;10.20;;
23346;SDS011;36852;45.466;11.066;2023-04-29T01:41:48;15.78;;;10.50;;
23346;SDS011;36852;45.466;11.066;2023-04-29T01:44:23;18.05;;;10.55;;
23346;SDS011;36852;45.466;11.066;2023-04-29T01:46:55;19.32;;;11.73;;
23346;SDS011;36852;45.466;11.066;2023-04-29T01:49:25;20.27;;;10.63;;
23346;SDS011;36852;45.466;11.066;2023-04-29T01:51:54;23.02;;;11.85;;
23346;SDS011;36852;45.466;11.066;2023-04-29T01:54:23;19.05;;;10.43;;
23346;SDS011;36852;45.466;11.066;2023-04-29T01:56:51;19.87;;;10.78;;
23346;SDS011;36852;45.466;11.066;2023-04-29T01:59:21;18.45;;;10.25;;
23346;SDS011;36852;45.466;11.066;2023-04-29T02:01:53;19.40;;;10.78;;
23346;SDS011;36852;45.466;11.066;2023-04-29T02:04:22;18.85;;;10.13;;
23346;SDS011;36852;45.466;11.066;2023-04-29T02:06:51;19.05;;;10.30;;
23346;SDS011;36852;45.466;11.066;2023-04-29T02:09:19;17.52;;;10.88;;
23346;SDS011;36852;45.466;11.066;2023-04-29T02:11:49;18.55;;;9.85;;
23346;SDS011;36852;45.466;11.066;2023-04-29T02:14:17;13.85;;;9.63;;
23346;SDS011;36852;45.466;11.066;2023-04-29T02:16:44;14.75;;;10.18;;
23346;SDS011;36852;45.466;11.066;2023-04-29T02:19:14;17.25;;;10.80;;
23346;SDS011;36852;45.466;11.066;2023-04-29T02:21:42;18.10;;;10.85;;
23346;SDS011;36852;45.466;11.066;2023-04-29T02:24:09;18.87;;;9.93;;
23346;SDS011;36852;45.466;11.066;2023-04-29T02:26:37;15.55;;;10.78;;
23346;SDS011;36852;45.466;11.066;2023-04-29T02:29:06;17.80;;;11.40;;
23346;SDS011;36852;45.466;11.066;2023-04-29T02:31:34;16.10;;;10.60;;
23346;SDS011;36852;45.466;11.066;2023-04-29T02:34:02;16.65;;;10.82;;
23346;SDS011;36852;45.466;11.066;2023-04-29T02:36:32;17.48;;;10.65;;
23346;SDS011;36852;45.466;11.066;2023-04-29T02:39:01;18.62;;;9.83;;
23346;SDS011;36852;45.466;11.066;2023-04-29T02:41:29;14.75;;;10.20;;
23346;SDS011;36852;45.466;11.066;2023-04-29T02:43:56;14.20;;;9.75;;
23346;SDS011;36852;45.466;11.066;2023-04-29T02:46:25;17.70;;;9.93;;
23346;SDS011;36852;45.466;11.066;2023-04-29T02:48:56;16.45;;;10.25;;
23346;SDS011;36852;45.466;11.066;2023-04-29T02:51:24;16.77;;;10.32;;
23346;SDS011;36852;45.466;11.066;2023-04-29T02:53:55;14.83;;;10.28;;
23346;SDS011;36852;45.466;11.066;2023-04-29T02:56:23;16.60;;;10.13;;
23346;SDS011;36852;45.466;11.066;2023-04-29T02:58:50;18.52;;;10.80;;
23346;SDS011;36852;45.466;11.066;2023-04-29T03:01:18;20.08;;;10.68;;
23346;SDS011;36852;45.466;11.066;2023-04-29T03:03:46;17.07;;;9.63;;
23346;SDS011;36852;45.466;11.066;2023-04-29T03:06:16;16.12;;;10.32;;
23346;SDS011;36852;45.466;11.066;2023-04-29T03:08:45;16.77;;;9.95;;
23346;SDS011;36852;45.466;11.066;2023-04-29T03:11:13;16.75;;;10.18;;
23346;SDS011;36852;45.466;11.066;2023-04-29T03:13:40;16.23;;;10.68;;
23346;SDS011;36852;45.466;11.066;2023-04-29T03:16:09;15.20;;;9.58;;
23346;SDS011;36852;45.466;11.066;2023-04-29T03:18:36;15.53;;;9.90;;
23346;SDS011;36852;45.466;11.066;2023-04-29T03:21:04;16.10;;;10.80;;
23346;SDS011;36852;45.466;11.066;2023-04-29T03:23:35;15.88;;;10.65;;
23346;SDS011;36852;45.466;11.066;2023-04-29T03:26:05;17.65;;;10.18;;
23346;SDS011;36852;45.466;11.066;2023-04-29T03:28:32;18.60;;;10.28;;
23346;SDS011;36852;45.466;11.066;2023-04-29T03:31:00;18.98;;;11.00;;
23346;SDS011;36852;45.466;11.066;2023-04-29T03:33:28;18.92;;;11.60;;
23346;SDS011;36852;45.466;11.066;2023-04-29T03:35:56;19.27;;;10.40;;
23346;SDS011;36852;45.466;11.066;2023-04-29T03:38:29;17.65;;;10.78;;
23346;SDS011;36852;45.466;11.066;2023-04-29T03:41:00;19.77;;;10.18;;
23346;SDS011;36852;45.466;11.066;2023-04-29T03:43:31;14.47;;;9.78;;
23346;SDS011;36852;45.466;11.066;2023-04-29T03:45:59;18.30;;;11.00;;
23346;SDS011;36852;45.466;11.066;2023-04-29T03:48:27;16.02;;;9.85;;
23346;SDS011;36852;45.466;11.066;2023-04-29T03:50:55;14.55;;;9.93;;
23346;SDS011;36852;45.466;11.066;2023-04-29T03:53:23;15.50;;;10.25;;
23346;SDS011;36852;45.466;11.066;2023-04-29T03:55:52;16.77;;;10.80;;
23346;SDS011;36852;45.466;11.066;2023-04-29T03:58:20;18.60;;;11.08;;
23346;SDS011;36852;45.466;11.066;2023-04-29T04:00:50;16.62;;;10.60;;
23346;SDS011;36852;45.466;11.066;2023-04-29T04:03:19;20.88;;;10.48;;
23346;SDS011;36852;45.466;11.066;2023-04-29T04:05:49;17.15;;;10.48;;
23346;SDS011;36852;45.466;11.066;2023-04-29T04:08:17;17.05;;;10.38;;
23346;SDS011;36852;45.466;11.066;2023-04-29T04:10:52;16.30;;;10.30;;
23346;SDS011;36852;45.466;11.066;2023-04-29T04:13:22;13.10;;;9.50;;
23346;SDS011;36852;45.466;11.066;2023-04-29T04:15:50;17.90;;;10.58;;
23346;SDS011;36852;45.466;11.066;2023-04-29T04:18:21;17.60;;;10.20;;
23346;SDS011;36852;45.466;11.066;2023-04-29T04:20:49;16.97;;;10.15;;
23346;SDS011;36852;45.466;11.066;2023-04-29T04:26:07;19.10;;;9.93;;
23346;SDS011;36852;45.466;11.066;2023-04-29T04:28:42;16.50;;;10.08;;
23346;SDS011;36852;45.466;11.066;2023-04-29T04:31:12;15.48;;;10.28;;
23346;SDS011;36852;45.466;11.066;2023-04-29T04:33:42;17.17;;;10.32;;
23346;SDS011;36852;45.466;11.066;2023-04-29T04:36:11;16.97;;;10.63;;
23346;SDS011;36852;45.466;11.066;2023-04-29T04:38:42;17.48;;;10.63;;
23346;SDS011;36852;45.466;11.066;2023-04-29T04:41:11;17.67;;;10.05;;
23346;SDS011;36852;45.466;11.066;2023-04-29T04:43:40;20.17;;;10.65;;
23346;SDS011;36852;45.466;11.066;2023-04-29T04:46:10;20.12;;;11.80;;
23346;SDS011;36852;45.466;11.066;2023-04-29T04:48:54;17.85;;;11.00;;
23346;SDS011;36852;45.466;11.066;2023-04-29T04:51:22;18.95;;;11.22;;
23346;SDS011;36852;45.466;11.066;2023-04-29T04:53:53;19.45;;;10.53;;
23346;SDS011;36852;45.466;11.066;2023-04-29T04:56:22;16.23;;;9.68;;
23346;SDS011;36852;45.466;11.066;2023-04-29T04:58:50;19.05;;;10.00;;
23346;SDS011;36852;45.466;11.066;2023-04-29T05:01:18;17.50;;;10.58;;
23346;SDS011;36852;45.466;11.066;2023-04-29T05:03:46;22.40;;;10.90;;
23346;SDS011;36852;45.466;11.066;2023-04-29T05:06:14;20.75;;;10.13;;
23346;SDS011;36852;45.466;11.066;2023-04-29T05:08:44;18.50;;;9.58;;
23346;SDS011;36852;45.466;11.066;2023-04-29T05:11:19;15.10;;;10.70;;
23346;SDS011;36852;45.466;11.066;2023-04-29T05:13:46;18.57;;;10.18;;
23346;SDS011;36852;45.466;11.066;2023-04-29T05:16:17;15.63;;;10.38;;
23346;SDS011;36852;45.466;11.066;2023-04-29T05:18:46;16.27;;;10.95;;
23346;SDS011;36852;45.466;11.066;2023-04-29T05:21:14;17.42;;;10.75;;
23346;SDS011;36852;45.466;11.066;2023-04-29T05:23:43;19.62;;;10.70;;
23346;SDS011;36852;45.466;11.066;2023-04-29T05:26:11;18.27;;;10.68;;
23346;SDS011;36852;45.466;11.066;2023-04-29T05:28:39;19.12;;;11.30;;
23346;SDS011;36852;45.466;11.066;2023-04-29T05:31:07;19.17;;;11.43;;
23346;SDS011;36852;45.466;11.066;2023-04-29T05:33:35;22.30;;;11.20;;
23346;SDS011;36852;45.466;11.066;2023-04-29T05:36:04;21.12;;;11.40;;
23346;SDS011;36852;45.466;11.066;2023-04-29T05:38:33;19.02;;;12.23;;
23346;SDS011;36852;45.466;11.066;2023-04-29T05:41:05;15.50;;;10.95;;
23346;SDS011;36852;45.466;11.066;2023-04-29T05:43:42;19.10;;;11.03;;
23346;SDS011;36852;45.466;11.066;2023-04-29T05:46:12;16.42;;;11.33;;
23346;SDS011;36852;45.466;11.066;2023-04-29T05:48:39;17.27;;;12.03;;
23346;SDS011;36852;45.466;11.066;2023-04-29T05:51:10;18.23;;;11.45;;
23346;SDS011;36852;45.466;11.066;2023-04-29T05:53:42;19.35;;;11.90;;
23346;SDS011;36852;45.466;11.066;2023-04-29T05:56:10;19.10;;;11.73;;
23346;SDS011;36852;45.466;11.066;2023-04-29T05:58:38;16.50;;;11.15;;
23346;SDS011;36852;45.466;11.066;2023-04-29T06:01:09;16.87;;;11.75;;
23346;SDS011;36852;45.466;11.066;2023-04-29T06:03:37;18.42;;;13.03;;
23346;SDS011;36852;45.466;11.066;2023-04-29T06:06:10;16.75;;;11.18;;
23346;SDS011;36852;45.466;11.066;2023-04-29T06:08:40;18.65;;;11.90;;
23346;SDS011;36852;45.466;11.066;2023-04-29T06:11:30;17.82;;;11.70;;
23346;SDS011;36852;45.466;11.066;2023-04-29T06:13:59;22.07;;;12.23;;
23346;SDS011;36852;45.466;11.066;2023-04-29T06:16:28;16.73;;;12.18;;
23346;SDS011;36852;45.466;11.066;2023-04-29T06:18:56;23.65;;;12.28;;
23346;SDS011;36852;45.466;11.066;2023-04-29T06:21:27;18.15;;;12.50;;
23346;SDS011;36852;45.466;11.066;2023-04-29T06:23:54;19.70;;;11.90;;
23346;SDS011;36852;45.466;11.066;2023-04-29T06:26:22;20.05;;;13.05;;
23346;SDS011;36852;45.466;11.066;2023-04-29T06:28:50;21.70;;;12.20;;
23346;SDS011;36852;45.466;11.066;2023-04-29T06:31:18;19.57;;;13.20;;
23346;SDS011;36852;45.466;11.066;2023-04-29T06:33:50;19.05;;;12.65;;
23346;SDS011;36852;45.466;11.066;2023-04-29T06:36:19;26.93;;;13.68;;
23346;SDS011;36852;45.466;11.066;2023-04-29T06:38:58;22.22;;;12.63;;
23346;SDS011;36852;45.466;11.066;2023-04-29T06:41:31;17.70;;;13.38;;
23346;SDS011;36852;45.466;11.066;2023-04-29T06:44:03;18.62;;;11.88;;
23346;SDS011;36852;45.466;11.066;2023-04-29T06:46:38;20.25;;;13.13;;
23346;SDS011;36852;45.466;11.066;2023-04-29T06:49:08;22.55;;;13.13;;
23346;SDS011;36852;45.466;11.066;2023-04-29T06:51:37;18.20;;;13.15;;
23346;SDS011;36852;45.466;11.066;2023-04-29T06:54:05;24.00;;;14.60;;
23346;SDS011;36852;45.466;11.066;2023-04-29T06:56:34;24.27;;;14.15;;
23346;SDS011;36852;45.466;11.066;2023-04-29T06:59:03;20.12;;;14.35;;
23346;SDS011;36852;45.466;11.066;2023-04-29T07:01:34;18.17;;;13.13;;
23346;SDS011;36852;45.466;11.066;2023-04-29T07:04:03;28.07;;;15.32;;
23346;SDS011;36852;45.466;11.066;2023-04-29T07:06:31;21.25;;;14.90;;
23346;SDS011;36852;45.466;11.066;2023-04-29T07:08:58;24.45;;;14.07;;
23346;SDS011;36852;45.466;11.066;2023-04-29T07:11:26;19.87;;;13.80;;
23346;SDS011;36852;45.466;11.066;2023-04-29T07:13:54;23.45;;;14.40;;
23346;SDS011;36852;45.466;11.066;2023-04-29T07:16:22;30.48;;;14.75;;
23346;SDS011;36852;45.466;11.066;2023-04-29T07:18:51;28.92;;;13.05;;
23346;SDS011;36852;45.466;11.066;2023-04-29T07:21:19;21.87;;;13.80;;
23346;SDS011;36852;45.466;11.066;2023-04-29T07:23:47;20.35;;;13.78;;
23346;SDS011;36852;45.466;11.066;2023-04-29T07:26:15;19.55;;;14.10;;
23346;SDS011;36852;45.466;11.066;2023-04-29T07:28:44;24.52;;;16.20;;
23346;SDS011;36852;45.466;11.066;2023-04-29T07:31:12;23.10;;;14.95;;
23346;SDS011;36852;45.466;11.066;2023-04-29T07:33:40;21.12;;;14.70;;
23346;SDS011;36852;45.466;11.066;2023-04-29T07:36:09;23.25;;;14.95;;
23346;SDS011;36852;45.466;11.066;2023-04-29T07:38:37;24.32;;;15.60;;
23346;SDS011;36852;45.466;11.066;2023-04-29T07:41:05;21.07;;;15.60;;
23346;SDS011;36852;45.466;11.066;2023-04-29T07:43:33;20.50;;;14.58;;
23346;SDS011;36852;45.466;11.066;2023-04-29T07:46:00;24.95;;;15.80;;
23346;SDS011;36852;45.466;11.066;2023-04-29T07:48:28;20.10;;;14.47;;
23346;SDS011;36852;45.466;11.066;2023-04-29T07:50:58;25.75;;;14.68;;
23346;SDS011;36852;45.466;11.066;2023-04-29T07:53:26;23.40;;;14.68;;
23346;SDS011;36852;45.466;11.066;2023-04-29T07:55:54;20.08;;;14.45;;
23346;SDS011;36852;45.466;11.066;2023-04-29T07:58:23;21.33;;;15.05;;
23346;SDS011;36852;45.466;11.066;2023-04-29T08:00:51;21.00;;;14.35;;
23346;SDS011;36852;45.466;11.066;2023-04-29T08:03:19;24.75;;;18.37;;
23346;SDS011;36852;45.466;11.066;2023-04-29T08:05:47;23.62;;;14.70;;
23346;SDS011;36852;45.466;11.066;2023-04-29T08:08:16;20.77;;;14.73;;
23346;SDS011;36852;45.466;11.066;2023-04-29T08:10:44;19.52;;;13.88;;
23346;SDS011;36852;45.466;11.066;2023-04-29T08:13:13;21.75;;;14.00;;
23346;SDS011;36852;45.466;11.066;2023-04-29T08:15:43;24.65;;;13.80;;
23346;SDS011;36852;45.466;11.066;2023-04-29T08:18:11;18.55;;;12.88;;
23346;SDS011;36852;45.466;11.066;2023-04-29T08:20:39;23.35;;;15.48;;
23346;SDS011;36852;45.466;11.066;2023-04-29T08:23:08;23.18;;;15.50;;
23346;SDS011;36852;45.466;11.066;2023-04-29T08:25:36;26.62;;;15.30;;
23346;SDS011;36852;45.466;11.066;2023-04-29T08:28:06;23.70;;;15.50;;
23346;SDS011;36852;45.466;11.066;2023-04-29T08:30:36;21.45;;;15.10;;
23346;SDS011;36852;45.466;11.066;2023-04-29T08:33:05;24.50;;;15.35;;
23346;SDS011;36852;45.466;11.066;2023-04-29T08:35:34;24.45;;;16.15;;
23346;SDS011;36852;45.466;11.066;2023-04-29T08:38:05;22.93;;;15.63;;
23346;SDS011;36852;45.466;11.066;2023-04-29T08:40:37;26.65;;;13.83;;
23346;SDS011;36852;45.466;11.066;2023-04-29T08:43:09;21.60;;;14.07;;
23346;SDS011;36852;45.466;11.066;2023-04-29T08:45:38;23.90;;;15.10;;
23346;SDS011;36852;45.466;11.066;2023-04-29T08:48:07;21.52;;;14.07;;
23346;SDS011;36852;45.466;11.066;2023-04-29T08:50:40;21.95;;;14.28;;
23346;SDS011;36852;45.466;11.066;2023-04-29T08:53:07;19.65;;;13.15;;
23346;SDS011;36852;45.466;11.066;2023-04-29T08:55:40;22.98;;;12.25;;
23346;SDS011;36852;45.466;11.066;2023-04-29T08:58:11;24.60;;;11.50;;
23346;SDS011;36852;45.466;11.066;2023-04-29T09:00:40;20.15;;;10.98;;
23346;SDS011;36852;45.466;11.066;2023-04-29T09:05:44;16.55;;;9.08;;
23346;SDS011;36852;45.466;11.066;2023-04-29T09:08:15;17.15;;;10.20;;
23346;SDS011;36852;45.466;11.066;2023-04-29T09:10:43;16.42;;;10.60;;
23346;SDS011;36852;45.466;11.066;2023-04-29T09:13:27;19.57;;;11.83;;
23346;SDS011;36852;45.466;11.066;2023-04-29T09:15:57;19.57;;;11.15;;
23346;SDS011;36852;45.466;11.066;2023-04-29T09:18:41;21.07;;;11.95;;
23346;SDS011;36852;45.466;11.066;2023-04-29T09:21:23;19.25;;;11.80;;
23346;SDS011;36852;45.466;11.066;2023-04-29T09:23:54;17.57;;;10.45;;
23346;SDS011;36852;45.466;11.066;2023-04-29T09:26:23;22.58;;;12.55;;
23346;SDS011;36852;45.466;11.066;2023-04-29T09:29:05;18.30;;;12.20;;
23346;SDS011;36852;45.466;11.066;2023-04-29T09:31:36;20.17;;;11.83;;
23346;SDS011;36852;45.466;11.066;2023-04-29T09:34:05;18.20;;;11.85;;
23346;SDS011;36852;45.466;11.066;2023-04-29T09:36:40;17.20;;;12.07;;
23346;SDS011;36852;45.466;11.066;2023-04-29T09:39:20;19.20;;;11.90;;
23346;SDS011;36852;45.466;11.066;2023-04-29T09:44:26;17.55;;;9.75;;
23346;SDS011;36852;45.466;11.066;2023-04-29T09:47:06;17.07;;;10.58;;
23346;SDS011;36852;45.466;11.066;2023-04-29T09:52:09;16.70;;;9.45;;
23346;SDS011;36852;45.466;11.066;2023-04-29T09:54:47;16.35;;;9.85;;
23346;SDS011;36852;45.466;11.066;2023-04-29T09:57:16;14.78;;;9.93;;
23346;SDS011;36852;45.466;11.066;2023-04-29T09:59:45;15.68;;;9.88;;
23346;SDS011;36852;45.466;11.066;2023-04-29T10:02:13;13.70;;;10.15;;
23346;SDS011;36852;45.466;11.066;2023-04-29T10:04:44;14.90;;;9.20;;
23346;SDS011;36852;45.466;11.066;2023-04-29T10:07:15;14.85;;;10.25;;
23346;SDS011;36852;45.466;11.066;2023-04-29T10:09:44;15.63;;;10.72;;
23346;SDS011;36852;45.466;11.066;2023-04-29T10:14:49;15.25;;;10.93;;
23346;SDS011;36852;45.466;11.066;2023-04-29T10:17:22;17.20;;;11.38;;
23346;SDS011;36852;45.466;11.066;2023-04-29T10:22:47;15.13;;;9.80;;
23346;SDS011;36852;45.466;11.066;2023-04-29T10:25:36;14.28;;;10.10;;
23346;SDS011;36852;45.466;11.066;2023-04-29T10:28:12;20.08;;;12.13;;
23346;SDS011;36852;45.466;11.066;2023-04-29T10:30:49;14.25;;;10.65;;
23346;SDS011;36852;45.466;11.066;2023-04-29T10:33:20;17.48;;;12.63;;
23346;SDS011;36852;45.466;11.066;2023-04-29T10:35:49;17.55;;;10.48;;
23346;SDS011;36852;45.466;11.066;2023-04-29T10:38:25;16.32;;;11.03;;
23346;SDS011;36852;45.466;11.066;2023-04-29T10:41:01;17.80;;;9.90;;
23346;SDS011;36852;45.466;11.066;2023-04-29T10:43:32;17.77;;;11.95;;
23346;SDS011;36852;45.466;11.066;2023-04-29T10:48:47;21.40;;;12.23;;
23346;SDS011;36852;45.466;11.066;2023-04-29T10:54:09;18.02;;;10.72;;
23346;SDS011;36852;45.466;11.066;2023-04-29T10:56:47;17.70;;;11.00;;
23346;SDS011;36852;45.466;11.066;2023-04-29T10:59:21;17.02;;;11.70;;
23346;SDS011;36852;45.466;11.066;2023-04-29T11:01:52;17.47;;;11.60;;
23346;SDS011;36852;45.466;11.066;2023-04-29T11:04:20;13.68;;;10.43;;
23346;SDS011;36852;45.466;11.066;2023-04-29T11:06:53;14.90;;;11.80;;
23346;SDS011;36852;45.466;11.066;2023-04-29T11:14:34;18.95;;;12.03;;
23346;SDS011;36852;45.466;11.066;2023-04-29T11:17:06;19.07;;;11.65;;
23346;SDS011;36852;45.466;11.066;2023-04-29T11:19:52;15.25;;;11.70;;
23346;SDS011;36852;45.466;11.066;2023-04-29T11:30:01;16.32;;;12.37;;
23346;SDS011;36852;45.466;11.066;2023-04-29T11:32:31;13.90;;;11.25;;
23346;SDS011;36852;45.466;11.066;2023-04-29T11:37:44;18.40;;;12.13;;
23346;SDS011;36852;45.466;11.066;2023-04-29T11:40:13;20.20;;;12.28;;
23346;SDS011;36852;45.466;11.066;2023-04-29T11:42:45;17.52;;;11.55;;
23346;SDS011;36852;45.466;11.066;2023-04-29T11:45:16;16.52;;;11.80;;
23346;SDS011;36852;45.466;11.066;2023-04-29T11:47:44;16.25;;;13.18;;
23346;SDS011;36852;45.466;11.066;2023-04-29T11:50:14;16.80;;;11.78;;
23346;SDS011;36852;45.466;11.066;2023-04-29T11:52:46;16.82;;;11.55;;
23346;SDS011;36852;45.466;11.066;2023-04-29T11:55:14;14.73;;;12.03;;
23346;SDS011;36852;45.466;11.066;2023-04-29T11:57:42;17.00;;;12.28;;
23346;SDS011;36852;45.466;11.066;2023-04-29T12:00:10;17.77;;;12.03;;
23346;SDS011;36852;45.466;11.066;2023-04-29T12:02:42;16.02;;;11.48;;
23346;SDS011;36852;45.466;11.066;2023-04-29T12:05:11;18.27;;;12.47;;
23346;SDS011;36852;45.466;11.066;2023-04-29T12:07:40;18.17;;;13.22;;
23346;SDS011;36852;45.466;11.066;2023-04-29T12:10:08;18.50;;;13.35;;
23346;SDS011;36852;45.466;11.066;2023-04-29T12:12:39;18.60;;;13.25;;
23346;SDS011;36852;45.466;11.066;2023-04-29T12:15:11;18.73;;;13.18;;
23346;SDS011;36852;45.466;11.066;2023-04-29T12:17:39;17.37;;;11.90;;
23346;SDS011;36852;45.466;11.066;2023-04-29T12:20:08;14.90;;;11.75;;
23346;SDS011;36852;45.466;11.066;2023-04-29T12:22:40;15.80;;;11.12;;
23346;SDS011;36852;45.466;11.066;2023-04-29T12:25:10;16.37;;;13.15;;
23346;SDS011;36852;45.466;11.066;2023-04-29T12:27:41;18.02;;;12.75;;
23346;SDS011;36852;45.466;11.066;2023-04-29T12:30:09;16.55;;;12.73;;
23346;SDS011;36852;45.466;11.066;2023-04-29T12:32:39;13.85;;;11.03;;
23346;SDS011;36852;45.466;11.066;2023-04-29T12:35:13;18.57;;;13.30;;
23346;SDS011;36852;45.466;11.066;2023-04-29T12:37:39;18.67;;;12.28;;
23346;SDS011;36852;45.466;11.066;2023-04-29T12:40:12;18.75;;;12.05;;
23346;SDS011;36852;45.466;11.066;2023-04-29T12:42:42;15.05;;;11.57;;
23346;SDS011;36852;45.466;11.066;2023-04-29T12:45:25;18.80;;;13.40;;
23346;SDS011;36852;45.466;11.066;2023-04-29T12:48:00;21.68;;;13.30;;
23346;SDS011;36852;45.466;11.066;2023-04-29T12:50:34;20.55;;;12.60;;
23346;SDS011;36852;45.466;11.066;2023-04-29T12:53:03;23.15;;;14.55;;
23346;SDS011;36852;45.466;11.066;2023-04-29T12:55:33;17.77;;;12.35;;
23346;SDS011;36852;45.466;11.066;2023-04-29T12:58:02;18.60;;;13.22;;
23346;SDS011;36852;45.466;11.066;2023-04-29T13:00:31;19.40;;;14.18;;
23346;SDS011;36852;45.466;11.066;2023-04-29T13:03:01;17.07;;;12.60;;
23346;SDS011;36852;45.466;11.066;2023-04-29T13:05:29;17.50;;;12.75;;
23346;SDS011;36852;45.466;11.066;2023-04-29T13:07:57;18.00;;;12.35;;
23346;SDS011;36852;45.466;11.066;2023-04-29T13:10:25;19.57;;;14.07;;
23346;SDS011;36852;45.466;11.066;2023-04-29T13:12:54;17.55;;;12.25;;
23346;SDS011;36852;45.466;11.066;2023-04-29T13:15:23;14.78;;;11.80;;
23346;SDS011;36852;45.466;11.066;2023-04-29T13:17:51;14.98;;;10.78;;
23346;SDS011;36852;45.466;11.066;2023-04-29T13:20:21;16.97;;;12.33;;
23346;SDS011;36852;45.466;11.066;2023-04-29T13:22:49;17.95;;;11.48;;
23346;SDS011;36852;45.466;11.066;2023-04-29T13:25:17;18.77;;;12.33;;
23346;SDS011;36852;45.466;11.066;2023-04-29T13:27:45;14.43;;;11.95;;
23346;SDS011;36852;45.466;11.066;2023-04-29T13:30:13;19.37;;;12.75;;
23346;SDS011;36852;45.466;11.066;2023-04-29T13:32:41;15.20;;;12.55;;
23346;SDS011;36852;45.466;11.066;2023-04-29T13:35:11;18.12;;;11.70;;
23346;SDS011;36852;45.466;11.066;2023-04-29T13:37:39;20.32;;;13.25;;
23346;SDS011;36852;45.466;11.066;2023-04-29T13:40:07;18.35;;;12.65;;
23346;SDS011;36852;45.466;11.066;2023-04-29T13:42:38;14.60;;;10.95;;
23346;SDS011;36852;45.466;11.066;2023-04-29T13:45:07;12.25;;;10.78;;
23346;SDS011;36852;45.466;11.066;2023-04-29T13:47:36;15.03;;;10.45;;
23346;SDS011;36852;45.466;11.066;2023-04-29T13:50:06;11.08;;;9.35;;
23346;SDS011;36852;45.466;11.066;2023-04-29T13:52:36;13.38;;;9.55;;
23346;SDS011;36852;45.466;11.066;2023-04-29T13:55:09;15.20;;;9.48;;
23346;SDS011;36852;45.466;11.066;2023-04-29T14:00:15;19.95;;;11.93;;
23346;SDS011;36852;45.466;11.066;2023-04-29T14:02:46;13.85;;;10.78;;
23346;SDS011;36852;45.466;11.066;2023-04-29T14:05:16;17.35;;;10.93;;
23346;SDS011;36852;45.466;11.066;2023-04-29T14:07:44;18.52;;;12.23;;
23346;SDS011;36852;45.466;11.066;2023-04-29T14:10:12;13.13;;;10.55;;
23346;SDS011;36852;45.466;11.066;2023-04-29T14:12:40;15.43;;;10.93;;
23346;SDS011;36852;45.466;11.066;2023-04-29T14:15:08;21.05;;;13.83;;
23346;SDS011;36852;45.466;11.066;2023-04-29T14:17:36;15.72;;;12.75;;
23346;SDS011;36852;45.466;11.066;2023-04-29T14:20:06;16.02;;;11.65;;
23346;SDS011;36852;45.466;11.066;2023-04-29T14:22:35;17.48;;;12.23;;
23346;SDS011;36852;45.466;11.066;2023-04-29T14:25:03;14.85;;;11.55;;
23346;SDS011;36852;45.466;11.066;2023-04-29T14:27:31;14.53;;;10.82;;
23346;SDS011;36852;45.466;11.066;2023-04-29T14:30:00;17.50;;;11.25;;
23346;SDS011;36852;45.466;11.066;2023-04-29T14:32:29;14.00;;;10.68;;
23346;SDS011;36852;45.466;11.066;2023-04-29T14:34:57;15.05;;;10.82;;
23346;SDS011;36852;45.466;11.066;2023-04-29T14:37:27;17.02;;;10.38;;
23346;SDS011;36852;45.466;11.066;2023-04-29T14:39:55;13.22;;;10.30;;
23346;SDS011;36852;45.466;11.066;2023-04-29T14:42:23;15.85;;;10.93;;
23346;SDS011;36852;45.466;11.066;2023-04-29T14:44:51;17.37;;;10.25;;
23346;SDS011;36852;45.466;11.066;2023-04-29T14:47:20;15.70;;;10.93;;
23346;SDS011;36852;45.466;11.066;2023-04-29T14:49:48;15.50;;;11.08;;
23346;SDS011;36852;45.466;11.066;2023-04-29T14:52:16;14.85;;;9.83;;
23346;SDS011;36852;45.466;11.066;2023-04-29T14:54:44;15.45;;;12.30;;
23346;SDS011;36852;45.466;11.066;2023-04-29T14:57:12;14.73;;;11.05;;
23346;SDS011;36852;45.466;11.066;2023-04-29T14:59:41;21.65;;;10.43;;
23346;SDS011;36852;45.466;11.066;2023-04-29T15:02:09;11.43;;;9.63;;
23346;SDS011;36852;45.466;11.066;2023-04-29T15:04:46;14.60;;;10.85;;
23346;SDS011;36852;45.466;11.066;2023-04-29T15:07:15;14.73;;;10.75;;
23346;SDS011;36852;45.466;11.066;2023-04-29T15:09:43;15.28;;;11.12;;
23346;SDS011;36852;45.466;11.066;2023-04-29T15:12:12;15.40;;;10.98;;
23346;SDS011;36852;45.466;11.066;2023-04-29T15:14:45;12.10;;;10.18;;
23346;SDS011;36852;45.466;11.066;2023-04-29T15:17:13;14.95;;;11.73;;
23346;SDS011;36852;45.466;11.066;2023-04-29T15:19:42;16.25;;;10.78;;
23346;SDS011;36852;45.466;11.066;2023-04-29T15:22:10;15.40;;;11.08;;
23346;SDS011;36852;45.466;11.066;2023-04-29T15:24:39;11.43;;;9.58;;
23346;SDS011;36852;45.466;11.066;2023-04-29T15:27:07;15.55;;;11.25;;
23346;SDS011;36852;45.466;11.066;2023-04-29T15:29:35;17.80;;;12.13;;
23346;SDS011;36852;45.466;11.066;2023-04-29T15:32:04;19.65;;;11.25;;